Time;durP1;ratioP1;P1;durP2;ratioP2;P2;SDS_P1;SDS_P2;PMS_P1;PMS_P2;Temp;Humidity;BMP_temperature;BMP_pressure;BME280_temperature;BME280_humidity;BME280_pressure;Samples;Min_cycle;Max_cycle;Signal;HPM_P1;HPM_P2
2023/03/10 00:00:30;;;;;;;3.4;1.7;;;;;;;2.86;83.18262;921.8466;;;;
2023/03/10 00:02:59;;;;;;;2.9;1.5;;;;;;;2.95;82.63574;921.7862;;;;
2023/03/10 00:05:27;;;;;;;3.1;2.3;;;;;;;3.01;82.26855;921.7746;;;;
2023/03/10 00:07:56;;;;;;;3.6;2.1;;;;;;;3.04;82.22852;921.675;;;;
2023/03/10 00:10:25;;;;;;;2.5;1.8;;;;;;;3.08;82.04688;921.6864;;;;
2023/03/10 00:12:55;;;;;;;2.7;1.9;;;;;;;3.12;81.72852;921.5084;;;;
2023/03/10 00:15:37;;;;;;;3.6;2.1;;;;;;;3.08;81.78711;921.6345;;;;
2023/03/10 00:18:02;;;;;;;3.1;1.8;;;;;;;3;82.12109;921.5331;;;;
2023/03/10 00:20:29;;;;;;;4.1;1.8;;;;;;;3.03;81.93555;921.4721;;;;
2023/03/10 00:22:59;;;;;;;2.2;1.8;;;;;;;2.98;82.06152;921.4635;;;;
2023/03/10 00:25:24;;;;;;;2;1.5;;;;;;;2.99;82.15332;921.4164;;;;
2023/03/10 00:27:55;;;;;;;2.9;2.1;;;;;;;2.89;82.75098;921.4247;;;;
2023/03/10 00:30:34;;;;;;;2.9;2;;;;;;;2.87;82.86914;921.4105;;;;
2023/03/10 00:32:58;;;;;;;2.9;1.9;;;;;;;2.82;82.9043;921.2977;;;;
2023/03/10 00:35:24;;;;;;;2.3;1.8;;;;;;;2.87;82.85742;921.1597;;;;
2023/03/10 00:37:55;;;;;;;3;1.6;;;;;;;2.81;82.82422;921.1575;;;;
2023/03/10 00:40:24;;;;;;;3.4;2;;;;;;;2.92;82.76563;920.9794;;;;
2023/03/10 00:42:53;;;;;;;3.1;1.8;;;;;;;2.97;82.18262;921.0421;;;;
2023/03/10 00:45:21;;;;;;;2.8;1.9;;;;;;;2.8;83.06934;920.9595;;;;
2023/03/10 00:47:46;;;;;;;2.5;1.7;;;;;;;2.81;83.05859;920.9728;;;;
2023/03/10 00:50:18;;;;;;;4;2.1;;;;;;;2.72;83.18848;920.9772;;;;
2023/03/10 00:52:46;;;;;;;4.6;2.2;;;;;;;2.6;83.34277;921.0133;;;;
2023/03/10 00:55:17;;;;;;;3.1;2.2;;;;;;;2.52;83.91113;920.9175;;;;
2023/03/10 00:57:42;;;;;;;4.2;1.9;;;;;;;2.49;84.375;920.9006;;;;
2023/03/10 01:00:10;;;;;;;2.5;1.8;;;;;;;2.63;84.10059;920.8624;;;;
2023/03/10 01:02:34;;;;;;;2.5;1.9;;;;;;;2.82;82.94824;920.7969;;;;
2023/03/10 01:05:00;;;;;;;3.3;1.8;;;;;;;2.81;82.64551;920.7631;;;;
2023/03/10 01:07:26;;;;;;;4;2.2;;;;;;;2.84;82.52734;920.6392;;;;
2023/03/10 01:09:52;;;;;;;2.9;1.9;;;;;;;2.88;82.58984;920.6072;;;;
2023/03/10 01:12:17;;;;;;;2.6;1.8;;;;;;;2.97;82.29492;920.6255;;;;
2023/03/10 01:14:50;;;;;;;3.3;2.3;;;;;;;3.06;81.83984;920.4567;;;;
2023/03/10 01:17:16;;;;;;;2.4;1.6;;;;;;;3.18;80.94238;920.3506;;;;
2023/03/10 01:19:43;;;;;;;2.7;1.4;;;;;;;3.07;81.4043;920.3066;;;;
2023/03/10 01:22:11;;;;;;;2.1;1.5;;;;;;;3.01;81.63086;920.2048;;;;
2023/03/10 01:24:36;;;;;;;2.6;1.4;;;;;;;3.08;81.38477;920.0676;;;;
2023/03/10 01:27:04;;;;;;;1.5;1.1;;;;;;;3.12;81.18945;920.0554;;;;
2023/03/10 01:29:30;;;;;;;1.9;1.2;;;;;;;3.13;81.05664;919.9155;;;;
2023/03/10 01:31:55;;;;;;;1.8;1.3;;;;;;;3.11;81.07617;919.9429;;;;
2023/03/10 01:34:23;;;;;;;1.4;1.1;;;;;;;3.21;81.0498;919.8275;;;;
2023/03/10 01:36:54;;;;;;;2;1.1;;;;;;;3.31;80.41992;919.8313;;;;
2023/03/10 01:39:19;;;;;;;2.1;1;;;;;;;3.33;80.27539;919.6953;;;;
2023/03/10 01:41:45;;;;;;;3;1.1;;;;;;;3.39;80.10742;919.6328;;;;
2023/03/10 01:44:10;;;;;;;1.2;1.1;;;;;;;3.34;80.25488;919.6506;;;;
2023/03/10 01:46:36;;;;;;;2.4;1.3;;;;;;;3.34;80.61523;919.6176;;;;
2023/03/10 01:49:01;;;;;;;1.8;1.1;;;;;;;3.31;80.83301;919.5435;;;;
2023/03/10 01:51:27;;;;;;;1;0.9;;;;;;;3.37;80.94629;919.4494;;;;
2023/03/10 01:53:52;;;;;;;1.1;1;;;;;;;3.56;80.80273;919.4609;;;;
2023/03/10 01:56:17;;;;;;;1.2;1.1;;;;;;;3.58;80.14355;919.413;;;;
2023/03/10 01:58:45;;;;;;;3.3;1.2;;;;;;;3.61;80.2041;919.382;;;;
2023/03/10 02:01:10;;;;;;;3.3;1.3;;;;;;;3.53;80.44727;919.3773;;;;
2023/03/10 02:03:39;;;;;;;2.5;1.7;;;;;;;3.5;80.61133;919.356;;;;
2023/03/10 02:06:10;;;;;;;1.8;1.4;;;;;;;3.52;80.37988;919.367;;;;
2023/03/10 02:08:35;;;;;;;2.6;1.7;;;;;;;3.42;80.73145;919.3989;;;;
2023/03/10 02:11:01;;;;;;;1.8;1.3;;;;;;;3.32;81.1377;919.3083;;;;
2023/03/10 02:13:26;;;;;;;3.7;1.2;;;;;;;3.34;81.01953;919.2385;;;;
2023/03/10 02:15:57;;;;;;;3.2;3;;;;;;;3.31;80.83105;919.1965;;;;
2023/03/10 02:18:24;;;;;;;2.6;1.6;;;;;;;3.32;81.89063;919.1376;;;;
2023/03/10 02:20:49;;;;;;;1.5;1;;;;;;;3.26;82.38281;919.1578;;;;
2023/03/10 02:23:14;;;;;;;1.1;1;;;;;;;3.34;82.1875;919.0363;;;;
2023/03/10 02:25:39;;;;;;;2.1;1.3;;;;;;;3.52;80.95117;918.9957;;;;
2023/03/10 02:28:04;;;;;;;2.3;1.2;;;;;;;3.63;79.56738;918.9744;;;;
2023/03/10 02:30:33;;;;;;;2.1;1.9;;;;;;;3.65;80.06738;918.7975;;;;
2023/03/10 02:33:03;;;;;;;2.8;2.6;;;;;;;3.57;80.35449;918.878;;;;
2023/03/10 02:35:28;;;;;;;3.4;2.7;;;;;;;3.58;80.14355;918.7143;;;;
2023/03/10 02:37:53;;;;;;;2.9;1.7;;;;;;;3.68;79.59961;918.6252;;;;
2023/03/10 02:40:21;;;;;;;1.3;1;;;;;;;3.75;79.18457;918.5861;;;;
2023/03/10 02:42:47;;;;;;;1.7;1.1;;;;;;;3.78;78.8877;918.5421;;;;
2023/03/10 02:45:12;;;;;;;1.7;0.9;;;;;;;3.86;79.01563;918.53;;;;
2023/03/10 02:47:37;;;;;;;1.5;1.1;;;;;;;3.9;78.33691;918.497;;;;
2023/03/10 02:50:07;;;;;;;1.3;1.2;;;;;;;3.87;78.07324;918.3458;;;;
2023/03/10 02:52:32;;;;;;;1.3;1.1;;;;;;;3.85;78.35059;918.3206;;;;
2023/03/10 02:54:57;;;;;;;1.2;1;;;;;;;3.77;79.25684;918.3579;;;;
2023/03/10 02:57:22;;;;;;;2.4;1;;;;;;;3.71;79.7959;918.2908;;;;
2023/03/10 02:59:51;;;;;;;3.3;1.7;;;;;;;3.7;80.03223;918.3081;;;;
2023/03/10 03:02:16;;;;;;;2.6;1.3;;;;;;;3.66;80.06738;918.2758;;;;
2023/03/10 03:04:43;;;;;;;1.6;1.3;;;;;;;3.65;79.9541;918.253;;;;
2023/03/10 03:07:09;;;;;;;2.6;1.9;;;;;;;3.64;79.81836;918.2198;;;;
2023/03/10 03:09:36;;;;;;;1.8;1.3;;;;;;;3.61;80.06934;918.2899;;;;
2023/03/10 03:12:01;;;;;;;2.9;1.3;;;;;;;3.6;79.83398;918.2159;;;;
2023/03/10 03:14:28;;;;;;;1.4;1.2;;;;;;;3.69;79.73535;918.1027;;;;
2023/03/10 03:16:53;;;;;;;2.3;1.3;;;;;;;3.8;79.5;918.1623;;;;
2023/03/10 03:19:20;;;;;;;3;1.2;;;;;;;3.77;79.12207;918.2414;;;;
2023/03/10 03:21:48;;;;;;;2.4;2;;;;;;;3.71;79.69531;918.1642;;;;
2023/03/10 03:24:10;;;;;;;1.5;1.3;;;;;;;3.72;79.73242;918.1209;;;;
2023/03/10 03:26:36;;;;;;;3.2;1.7;;;;;;;3.7;79.71582;918.1429;;;;
2023/03/10 03:29:02;;;;;;;4.1;2.4;;;;;;;3.7;79.44824;918.2318;;;;
2023/03/10 03:31:28;;;;;;;3.6;2.4;;;;;;;3.69;79.72559;918.1956;;;;
2023/03/10 03:33:53;;;;;;;2.5;1.7;;;;;;;3.72;80.15918;918.2901;;;;
2023/03/10 03:36:21;;;;;;;2.7;1.6;;;;;;;3.71;80.36914;918.2601;;;;
2023/03/10 03:38:46;;;;;;;3.5;1.8;;;;;;;3.82;80.17578;918.252;;;;
2023/03/10 03:41:12;;;;;;;1.6;1.2;;;;;;;3.91;79.52051;918.1892;;;;
2023/03/10 03:43:37;;;;;;;3;1.3;;;;;;;4.01;79.04395;918.2117;;;;
2023/03/10 03:46:05;;;;;;;0.8;0.8;;;;;;;4.11;77.72363;918.2275;;;;
2023/03/10 03:48:29;;;;;;;2;1.1;;;;;;;4.11;79.01758;918.2023;;;;
2023/03/10 03:50:57;;;;;;;2;1.1;;;;;;;4.07;78.70703;918.1314;;;;
2023/03/10 03:53:22;;;;;;;1.7;1.1;;;;;;;4.14;78.56152;918.1858;;;;
2023/03/10 03:55:47;;;;;;;3.5;1.5;;;;;;;4.17;78.40918;918.2181;;;;
2023/03/10 03:58:13;;;;;;;2.2;1.3;;;;;;;4.22;78.10254;918.0963;;;;
2023/03/10 04:02:34;;;;;;;1.5;1;;;;;;;4.34;77.54004;918.0372;;;;
2023/03/10 04:05:04;;;;;;;1.4;0.9;;;;;;;4.43;77.56738;918.1155;;;;
2023/03/10 04:07:29;;;;;;;0.9;0.9;;;;;;;4.47;77.63184;918.0366;;;;
2023/03/10 04:11:01;;;;;;;1.9;1;;;;;;;4.49;77.76855;918.0847;;;;
2023/03/10 04:13:30;;;;;;;2.1;1.1;;;;;;;4.37;79.09961;918.1191;;;;
2023/03/10 04:15:55;;;;;;;1;0.9;;;;;;;4.09;80.54199;918.1763;;;;
2023/03/10 04:18:21;;;;;;;1.4;1.1;;;;;;;4.33;80.08203;918.2231;;;;
2023/03/10 04:20:49;;;;;;;2.9;1;;;;;;;4.28;79.9834;918.2893;;;;
2023/03/10 04:23:14;;;;;;;1.5;1.1;;;;;;;4.21;80.36328;918.283;;;;
2023/03/10 04:28:04;;;;;;;0.8;0.8;;;;;;;4.23;79.55859;918.1861;;;;
2023/03/10 04:30:34;;;;;;;2.4;1;;;;;;;4.23;80.79297;918.4578;;;;
2023/03/10 04:33:04;;;;;;;2.7;1.4;;;;;;;4.2;80.1709;918.2322;;;;
2023/03/10 04:35:29;;;;;;;1.9;1.4;;;;;;;4.25;80.31445;918.3775;;;;
2023/03/10 04:37:55;;;;;;;2.1;1.3;;;;;;;4.34;79.4873;918.3681;;;;
2023/03/10 04:40:20;;;;;;;2.3;1.6;;;;;;;4.27;79.48633;918.3452;;;;
2023/03/10 04:42:45;;;;;;;2.7;1.2;;;;;;;4.24;79.2207;918.3365;;;;
2023/03/10 04:45:14;;;;;;;2.5;1.7;;;;;;;4.35;79.20605;918.3373;;;;
2023/03/10 04:47:44;;;;;;;3.8;1.8;;;;;;;4.38;79.33594;918.3689;;;;
2023/03/10 04:50:09;;;;;;;2.3;1.9;;;;;;;4.46;78.75488;918.4109;;;;
2023/03/10 04:52:36;;;;;;;3.2;2.5;;;;;;;4.54;77.9043;918.481;;;;
2023/03/10 04:55:01;;;;;;;3.9;2.2;;;;;;;4.67;77.50879;918.4497;;;;
2023/03/10 04:57:30;;;;;;;2.4;1.9;;;;;;;4.72;77.51855;918.5214;;;;
2023/03/10 04:59:58;;;;;;;3.2;2.2;;;;;;;4.82;77.43555;918.6264;;;;
2023/03/10 05:02:24;;;;;;;3.6;2;;;;;;;4.83;76.45703;918.5925;;;;
2023/03/10 05:04:49;;;;;;;2.5;1.9;;;;;;;4.92;76.74512;918.6223;;;;
2023/03/10 05:07:16;;;;;;;3.4;2;;;;;;;5.1;76.4834;918.5339;;;;
2023/03/10 05:09:41;;;;;;;3.8;2.2;;;;;;;5.14;76.25391;918.6513;;;;
2023/03/10 05:12:07;;;;;;;3.5;1.9;;;;;;;5.11;76.0918;918.623;;;;
2023/03/10 05:14:32;;;;;;;5.4;2;;;;;;;5.15;76.24609;918.6497;;;;
2023/03/10 05:17:00;;;;;;;2.6;1.6;;;;;;;5.12;75.58398;918.5804;;;;
2023/03/10 05:19:25;;;;;;;2.6;1.7;;;;;;;5.1;75.81934;918.653;;;;
2023/03/10 05:21:51;;;;;;;2.2;1.4;;;;;;;4.94;76.2627;918.6987;;;;
2023/03/10 05:24:16;;;;;;;3.2;1.6;;;;;;;4.7;76.62598;918.6577;;;;
2023/03/10 05:26:44;;;;;;;4.6;1.8;;;;;;;4.56;77.20996;918.6;;;;
2023/03/10 05:31:34;;;;;;;2.6;1.7;;;;;;;4.79;77.10352;918.7034;;;;
2023/03/10 05:34:04;;;;;;;4;2.2;;;;;;;4.81;76.89453;918.628;;;;
2023/03/10 05:36:29;;;;;;;3.4;1.7;;;;;;;4.8;76.7793;918.7444;;;;
2023/03/10 05:38:57;;;;;;;3.1;1.3;;;;;;;4.74;77.36426;918.7507;;;;
2023/03/10 05:41:22;;;;;;;1.6;1.3;;;;;;;4.86;77.22852;918.7272;;;;
2023/03/10 05:43:47;;;;;;;2.3;1.1;;;;;;;4.89;76.61523;918.7383;;;;
2023/03/10 05:46:12;;;;;;;1.9;1.2;;;;;;;4.91;76.3252;918.7989;;;;
2023/03/10 05:48:42;;;;;;;3.3;2.1;;;;;;;4.88;76.33105;918.6279;;;;
2023/03/10 05:51:07;;;;;;;1.8;1.3;;;;;;;4.91;76.30273;918.6838;;;;
2023/03/10 05:53:35;;;;;;;4.6;1.4;;;;;;;5;76.20605;918.6631;;;;
2023/03/10 05:56:57;;;;;;;3.1;1.4;;;;;;;5.04;76.12207;918.6633;;;;
2023/03/10 05:59:15;;;;;;;2.6;1.2;;;;;;;5.01;76.51367;918.6066;;;;
2023/03/10 06:01:41;;;;;;;1.9;1.3;;;;;;;5.11;76.5752;918.5812;;;;
2023/03/10 06:04:06;;;;;;;3;1.6;;;;;;;5.21;76.52539;918.6563;;;;
2023/03/10 06:06:36;;;;;;;3.9;1.4;;;;;;;5.13;76.44434;918.7318;;;;
2023/03/10 06:09:01;;;;;;;2.1;1.7;;;;;;;5.04;76.8457;918.7486;;;;
2023/03/10 06:11:29;;;;;;;5.1;2.5;;;;;;;5.04;78.08496;918.6682;;;;
2023/03/10 06:13:57;;;;;;;9.4;3.7;;;;;;;5.13;78.8125;918.5914;;;;
2023/03/10 06:16:22;;;;;;;5.1;3.3;;;;;;;5.29;78.35547;918.6252;;;;
2023/03/10 06:18:51;;;;;;;8;3;;;;;;;5.31;77.27637;918.7411;;;;
2023/03/10 06:21:16;;;;;;;3;1.9;;;;;;;5.26;76.88477;918.7744;;;;
2023/03/10 06:23:42;;;;;;;4.2;2;;;;;;;5.3;76.74414;918.7514;;;;
2023/03/10 06:26:07;;;;;;;7.7;3.2;;;;;;;5.27;76.53613;918.712;;;;
2023/03/10 06:28:35;;;;;;;5.8;2.7;;;;;;;5.17;77.24219;918.7522;;;;
2023/03/10 06:30:59;;;;;;;7.5;3.2;;;;;;;5.3;77.00391;918.7001;;;;
2023/03/10 06:33:24;;;;;;;9.9;3.5;;;;;;;5.47;76.94434;918.6959;;;;
2023/03/10 06:35:55;;;;;;;6.4;3.2;;;;;;;5.51;76.15137;918.6705;;;;
2023/03/10 06:38:25;;;;;;;6.5;3.4;;;;;;;5.59;76.56055;918.6868;;;;
2023/03/10 06:40:50;;;;;;;7.6;4;;;;;;;5.7;75.6543;918.5706;;;;
2023/03/10 06:43:18;;;;;;;8.4;4.5;;;;;;;5.68;75.70801;918.6156;;;;
2023/03/10 06:45:43;;;;;;;8.3;3.9;;;;;;;5.62;75.76367;918.6191;;;;
2023/03/10 06:48:15;;;;;;;7.4;3.8;;;;;;;5.53;76.49316;918.6128;;;;
2023/03/10 06:50:43;;;;;;;5;2.6;;;;;;;5.36;76.55273;918.5761;;;;
2023/03/10 06:53:11;;;;;;;3.6;1.9;;;;;;;5.31;76.19434;918.5525;;;;
2023/03/10 06:55:36;;;;;;;4.6;2.2;;;;;;;5.46;76.44629;918.5105;;;;
2023/03/10 06:58:04;;;;;;;4.1;2;;;;;;;5.57;76.12695;918.4319;;;;
2023/03/10 07:00:29;;;;;;;2.7;1.6;;;;;;;5.68;75.45801;918.4144;;;;
2023/03/10 07:06:52;;;;;;;4.2;1.8;;;;;;;5.97;72.16504;918.1923;;;;
2023/03/10 07:09:21;;;;;;;2.5;1.4;;;;;;;6.11;72.57324;918.2762;;;;
2023/03/10 07:11:46;;;;;;;6.1;2.2;;;;;;;6.14;73.07715;918.2239;;;;
2023/03/10 07:14:16;;;;;;;3.5;2.5;;;;;;;5.99;74.53027;918.1708;;;;
2023/03/10 07:16:47;;;;;;;3.3;2.5;;;;;;;5.99;75.12793;918.0815;;;;
2023/03/10 07:19:12;;;;;;;4.5;2.3;;;;;;;5.92;75.18457;917.9201;;;;
2023/03/10 07:21:39;;;;;;;5.5;3.7;;;;;;;5.9;74.91016;917.8903;;;;
2023/03/10 07:24:05;;;;;;;3.9;2.6;;;;;;;6.07;74.12695;918.0008;;;;
2023/03/10 07:30:25;;;;;;;5.4;2.5;;;;;;;6.35;72.37695;918.1215;;;;
2023/03/10 07:32:55;;;;;;;3.3;2.1;;;;;;;6.37;72.18945;918.1323;;;;
2023/03/10 07:35:20;;;;;;;6.9;2.8;;;;;;;6.48;71.78809;918.0528;;;;
2023/03/10 07:37:48;;;;;;;5.8;3.2;;;;;;;6.46;72.46289;918.0837;;;;
2023/03/10 07:40:13;;;;;;;7.2;3.7;;;;;;;6.33;73.16406;918.0419;;;;
2023/03/10 07:42:42;;;;;;;5.4;3.2;;;;;;;6.29;72.98828;918.0469;;;;
2023/03/10 07:45:07;;;;;;;4.6;2.1;;;;;;;6.31;73.11523;917.9361;;;;
2023/03/10 07:47:35;;;;;;;2.5;1.9;;;;;;;6.28;72.82813;917.9688;;;;
2023/03/10 07:50:00;;;;;;;3.3;2.2;;;;;;;6.35;71.98145;917.9334;;;;
2023/03/10 07:52:31;;;;;;;2.8;1.7;;;;;;;6.58;71.26172;917.8646;;;;
2023/03/10 07:55:30;;;;;;;3;1.3;;;;;;;6.67;70.15625;917.8751;;;;
2023/03/10 07:57:59;;;;;;;4.8;1.8;;;;;;;6.94;69.23828;917.7866;;;;
2023/03/10 08:00:23;;;;;;;2;1.6;;;;;;;7.11;68.8125;917.6719;;;;
2023/03/10 08:02:53;;;;;;;3;1.7;;;;;;;7.36;67.75391;917.6589;;;;
2023/03/10 08:05:26;;;;;;;2.8;1.8;;;;;;;7.37;67.95801;917.7064;;;;
2023/03/10 08:08:07;;;;;;;2.3;1.8;;;;;;;7.53;68.09668;917.6088;;;;
2023/03/10 08:10:36;;;;;;;1.6;1.5;;;;;;;7.89;66.69043;917.5848;;;;
2023/03/10 08:13:01;;;;;;;2.8;1.8;;;;;;;8.39;65.29199;917.6795;;;;
2023/03/10 08:15:37;;;;;;;5.3;1.7;;;;;;;9.05;62.94531;917.6052;;;;
2023/03/10 08:18:04;;;;;;;3.5;1.8;;;;;;;9.63;60.09082;917.52;;;;
2023/03/10 08:20:27;;;;;;;3.5;1.9;;;;;;;10.07;59.3877;917.4094;;;;
2023/03/10 08:22:53;;;;;;;3.5;1.9;;;;;;;9.59;60.05078;917.4188;;;;
2023/03/10 08:25:19;;;;;;;2.2;1.7;;;;;;;10.06;57.03613;917.3912;;;;
2023/03/10 08:27:45;;;;;;;3;1.5;;;;;;;10.89;54.40332;917.3081;;;;
2023/03/10 08:30:11;;;;;;;2.5;1.4;;;;;;;11.17;51.52246;917.3664;;;;
2023/03/10 08:32:40;;;;;;;4.1;1.2;;;;;;;12.12;50.51367;917.3162;;;;
2023/03/10 08:35:10;;;;;;;3.1;1.5;;;;;;;12.61;47.54102;917.2983;;;;
2023/03/10 08:37:35;;;;;;;4.1;1.7;;;;;;;12.53;50.89355;917.2586;;;;
2023/03/10 08:40:06;;;;;;;7.4;2.3;;;;;;;13.05;48.01465;917.2919;;;;
2023/03/10 08:42:35;;;;;;;2.4;1.1;;;;;;;13.65;45.24023;917.1993;;;;
2023/03/10 08:44:59;;;;;;;2.4;1.5;;;;;;;15.12;43.1543;917.3075;;;;
2023/03/10 08:47:27;;;;;;;3.8;1.2;;;;;;;17.06;39.0918;917.3616;;;;
2023/03/10 08:50:14;;;;;;;1.5;1.2;;;;;;;16.67;39.43945;917.3531;;;;
2023/03/10 08:52:38;;;;;;;2.9;1.5;;;;;;;17.6;37.57422;917.3121;;;;
2023/03/10 08:55:08;;;;;;;2.9;1.4;;;;;;;16.72;39.53711;917.3608;;;;
2023/03/10 09:04:03;;;;;;;2;1.2;;;;;;;15.06;43.72461;917.2692;;;;
2023/03/10 09:06:28;;;;;;;2.3;1.2;;;;;;;15.48;42.76172;917.2553;;;;
2023/03/10 09:08:54;;;;;;;1.9;0.9;;;;;;;15.87;41.67969;917.0625;;;;
2023/03/10 09:11:19;;;;;;;2.6;1;;;;;;;17.16;39.57715;917.0844;;;;
2023/03/10 09:13:49;;;;;;;2.7;1.2;;;;;;;17.78;37.94922;916.9655;;;;
2023/03/10 09:16:14;;;;;;;2.6;1;;;;;;;17.82;37.48828;916.8824;;;;
2023/03/10 09:18:41;;;;;;;2.5;1;;;;;;;18.47;37.22949;916.825;;;;
2023/03/10 09:21:06;;;;;;;2;0.9;;;;;;;19.5;34.98633;916.8403;;;;
2023/03/10 09:23:37;;;;;;;3.5;1;;;;;;;20.26;34.07715;916.8228;;;;
2023/03/10 09:26:08;;;;;;;3.3;0.9;;;;;;;23.02;29.44922;916.7637;;;;
2023/03/10 09:28:33;;;;;;;2;1.2;;;;;;;20.92;30.08301;916.7706;;;;
2023/03/10 09:31:02;;;;;;;1.6;1;;;;;;;18.66;34.40723;916.8552;;;;
2023/03/10 09:33:32;;;;;;;2.3;1;;;;;;;16.58;36.60645;916.8875;;;;
2023/03/10 09:35:57;;;;;;;1.6;0.9;;;;;;;16.29;37.9248;916.8597;;;;
2023/03/10 09:38:22;;;;;;;1.7;1.1;;;;;;;15.04;40.5625;916.8315;;;;
2023/03/10 09:40:53;;;;;;;1.9;1.2;;;;;;;14.91;41.65723;916.8398;;;;
2023/03/10 09:43:18;;;;;;;1.6;1.2;;;;;;;14.11;43.05566;916.8649;;;;
2023/03/10 09:45:47;;;;;;;2.1;1.1;;;;;;;14.66;43.10938;916.817;;;;
2023/03/10 09:48:13;;;;;;;1.5;1;;;;;;;15.49;43.08691;916.764;;;;
2023/03/10 09:50:42;;;;;;;1.8;1.3;;;;;;;16.12;41.71484;916.8017;;;;
2023/03/10 09:53:08;;;;;;;3.2;1.1;;;;;;;16.15;40.7002;916.7377;;;;
2023/03/10 09:55:34;;;;;;;1.2;1;;;;;;;16.18;39.73047;916.6794;;;;
2023/03/10 09:57:59;;;;;;;1.8;0.9;;;;;;;16.06;39.4541;916.6581;;;;
2023/03/10 10:00:31;;;;;;;2.3;0.9;;;;;;;16.3;41.53516;916.7047;;;;
2023/03/10 10:02:59;;;;;;;2;1;;;;;;;16.68;39.50977;916.7764;;;;
2023/03/10 10:05:30;;;;;;;1.4;1;;;;;;;16.72;39.30566;916.812;;;;
2023/03/10 10:07:52;;;;;;;1.9;1;;;;;;;16.38;38.82324;916.9055;;;;
2023/03/10 10:10:21;;;;;;;3;1.3;;;;;;;15.78;40.30762;917.0693;;;;
2023/03/10 10:12:46;;;;;;;1.2;1;;;;;;;15.36;41.03125;917.1894;;;;
2023/03/10 10:15:11;;;;;;;1.7;1.1;;;;;;;15.13;43.5127;917.2871;;;;
2023/03/10 10:17:36;;;;;;;1.7;1.3;;;;;;;14.39;47.06836;917.1066;;;;
2023/03/10 10:21:09;;;;;;;2;1.6;;;;;;;13.18;54.12891;917.4469;;;;
2023/03/10 10:44:25;;;;;;;1.1;0.9;;;;;;;12.48;59.39648;917.7703;;;;
2023/03/10 10:48:13;;;;;;;0.5;0.5;;;;;;;12.22;59.58008;917.8456;;;;
2023/03/10 10:53:46;;;;;;;0.5;0.4;;;;;;;11.68;63.29492;918.1273;;;;
2023/03/10 10:56:11;;;;;;;0.8;0.6;;;;;;;11.58;60.49902;918.124;;;;
2023/03/10 10:58:40;;;;;;;0.6;0.6;;;;;;;11.52;64.26855;918.1575;;;;
2023/03/10 11:01:05;;;;;;;1.3;0.8;;;;;;;11.76;61.2793;918.1467;;;;
2023/03/10 11:08:49;;;;;;;0.6;0.6;;;;;;;11.17;63.95117;918.1184;;;;
2023/03/10 11:11:11;;;;;;;1.1;0.5;;;;;;;10.79;64.62695;918.2983;;;;
2023/03/10 11:13:36;;;;;;;0.8;0.7;;;;;;;10.42;63.09863;918.3027;;;;
2023/03/10 11:16:01;;;;;;;0.6;0.6;;;;;;;10.77;62.7168;918.2526;;;;
2023/03/10 11:18:26;;;;;;;0.2;0.2;;;;;;;11.4;62.5332;918.2807;;;;
2023/03/10 11:20:52;;;;;;;0.3;0.3;;;;;;;12.18;58.60059;918.2223;;;;
2023/03/10 11:23:17;;;;;;;0.9;0.1;;;;;;;13.17;54.61035;918.1333;;;;
2023/03/10 11:25:42;;;;;;;0.2;0.2;;;;;;;14.31;53.11719;918.0903;;;;
2023/03/10 11:28:07;;;;;;;0.3;0.3;;;;;;;15;50.04004;918.084;;;;
2023/03/10 11:30:32;;;;;;;0.8;0.1;;;;;;;15.89;45.3584;918.0132;;;;
2023/03/10 11:32:58;;;;;;;0.6;0.4;;;;;;;15.16;46.64355;918.0217;;;;
2023/03/10 11:35:23;;;;;;;0.3;0.2;;;;;;;14.1;47.73926;917.936;;;;
2023/03/10 11:37:52;;;;;;;0.3;0.3;;;;;;;12.88;49.95898;917.8475;;;;
2023/03/10 11:40:23;;;;;;;1;0.4;;;;;;;12.59;52.23145;917.8331;;;;
2023/03/10 11:42:48;;;;;;;0.2;0.2;;;;;;;12.64;50.53906;917.7775;;;;
2023/03/10 11:45:18;;;;;;;1.3;0.4;;;;;;;13.62;50.51563;917.7664;;;;
2023/03/10 11:47:44;;;;;;;0.5;0.5;;;;;;;15.64;44.96191;917.6129;;;;
2023/03/10 11:50:09;;;;;;;1.3;0.8;;;;;;;16.04;43.09473;917.5422;;;;
2023/03/10 11:52:34;;;;;;;5.2;0.9;;;;;;;15.68;43.42969;917.6042;;;;
2023/03/10 11:54:59;;;;;;;3;1.4;;;;;;;16.25;43.90234;917.5942;;;;
2023/03/10 11:57:24;;;;;;;0.6;0.4;;;;;;;17.73;41.26465;917.4994;;;;
2023/03/10 11:59:50;;;;;;;0.7;0.3;;;;;;;17.19;41.44531;917.5245;;;;
2023/03/10 12:02:15;;;;;;;0.2;0.2;;;;;;;15.55;45.11426;917.4359;;;;
2023/03/10 12:04:40;;;;;;;1.2;0.3;;;;;;;13.98;48.48438;917.3723;;;;
2023/03/10 12:07:07;;;;;;;0.9;0.8;;;;;;;13.34;52.40137;917.329;;;;
2023/03/10 12:09:32;;;;;;;0.2;0.2;;;;;;;12.61;53.19727;917.1913;;;;
2023/03/10 12:11:57;;;;;;;1.4;0.5;;;;;;;12.54;54.73828;917.2224;;;;
2023/03/10 12:14:23;;;;;;;1.7;0.8;;;;;;;12.59;55.00781;917.2255;;;;
2023/03/10 12:16:52;;;;;;;0.4;0.4;;;;;;;12.67;54.82324;917.177;;;;
2023/03/10 12:19:17;;;;;;;0.5;0.5;;;;;;;12.77;54.27344;917.2144;;;;
2023/03/10 12:21:43;;;;;;;0.3;0.3;;;;;;;13.61;52.3418;917.235;;;;
2023/03/10 12:24:08;;;;;;;0.5;0.5;;;;;;;14.42;48.41992;917.1505;;;;
2023/03/10 12:26:36;;;;;;;0.7;0.6;;;;;;;15.05;47.33496;917.0228;;;;
2023/03/10 12:29:04;;;;;;;0.5;0.3;;;;;;;16.69;43.54102;916.9936;;;;
2023/03/10 12:31:29;;;;;;;0.4;0.3;;;;;;;18.2;38.99609;916.95;;;;
2023/03/10 12:33:54;;;;;;;0.5;0.5;;;;;;;18.18;38.21582;916.8458;;;;
2023/03/10 12:36:23;;;;;;;0.5;0.5;;;;;;;18.18;38.55371;916.7684;;;;
2023/03/10 12:38:49;;;;;;;0.4;0.4;;;;;;;18.24;38.9541;916.7122;;;;
2023/03/10 12:41:16;;;;;;;0.6;0.5;;;;;;;17.67;39.98242;916.6918;;;;
2023/03/10 12:43:45;;;;;;;0.6;0.6;;;;;;;17.47;39.74316;916.7523;;;;
2023/03/10 12:46:10;;;;;;;1.3;0.3;;;;;;;17.23;39.79199;916.6713;;;;
2023/03/10 12:48:35;;;;;;;1;0.3;;;;;;;18.33;38.15918;916.5206;;;;
2023/03/10 12:51:03;;;;;;;0.3;0.3;;;;;;;18.53;36.45605;916.4822;;;;
2023/03/10 12:53:28;;;;;;;0.4;0.3;;;;;;;18.33;35.59082;916.5203;;;;
2023/03/10 12:55:56;;;;;;;0.2;0.2;;;;;;;20.47;33.84766;916.3928;;;;
2023/03/10 12:58:21;;;;;;;0.5;0.4;;;;;;;20.96;32.38867;916.3265;;;;
2023/03/10 13:00:48;;;;;;;0.3;0.3;;;;;;;19.29;33.33887;916.3381;;;;
2023/03/10 13:03:15;;;;;;;0.2;0.2;;;;;;;18.16;36.16992;916.332;;;;
2023/03/10 13:08:35;;;;;;;0.5;0.4;;;;;;;16.87;37.11816;916.4138;;;;
2023/03/10 13:11:12;;;;;;;1.8;0.5;;;;;;;16.91;37.81641;916.4549;;;;
2023/03/10 13:13:38;;;;;;;0.7;0.3;;;;;;;16.61;37.77832;916.5815;;;;
2023/03/10 13:16:03;;;;;;;1.4;0.4;;;;;;;16.23;39.48047;916.5658;;;;
2023/03/10 13:18:28;;;;;;;0.8;0.4;;;;;;;15.88;39.87695;916.5009;;;;
2023/03/10 13:20:54;;;;;;;0.6;0.2;;;;;;;16.23;39.91016;916.616;;;;
2023/03/10 13:23:19;;;;;;;0.2;0.2;;;;;;;16.57;40.06738;916.699;;;;
2023/03/10 13:25:48;;;;;;;1.2;0.6;;;;;;;16.81;40.03223;916.8783;;;;
2023/03/10 13:28:13;;;;;;;0.6;0.3;;;;;;;17;37.26758;916.8783;;;;
2023/03/10 13:30:41;;;;;;;2.1;0.5;;;;;;;16.6;39.36328;916.9581;;;;
2023/03/10 13:33:06;;;;;;;0.4;0.3;;;;;;;15.75;37.42773;917.0176;;;;
2023/03/10 13:35:32;;;;;;;0.7;0.2;;;;;;;14.81;40.14844;917.1749;;;;
2023/03/10 13:38:01;;;;;;;1.3;0.5;;;;;;;14.37;41.22559;917.2697;;;;
2023/03/10 13:40:26;;;;;;;0.3;0.3;;;;;;;14.16;41.51758;917.4833;;;;
2023/03/10 13:42:54;;;;;;;5;0.6;;;;;;;13.99;42.53613;917.5237;;;;
2023/03/10 13:45:19;;;;;;;0.5;0.3;;;;;;;13.9;43.44727;917.5881;;;;
2023/03/10 13:47:46;;;;;;;0.6;0.1;;;;;;;13.62;45.47852;917.7792;;;;
2023/03/10 13:50:09;;;;;;;0.3;0.3;;;;;;;13.58;46.1875;917.949;;;;
2023/03/10 13:52:38;;;;;;;0.1;0.1;;;;;;;13.16;46.26855;917.9386;;;;
2023/03/10 13:55:03;;;;;;;0.4;0.2;;;;;;;13.13;48.25391;918.057;;;;
2023/03/10 13:57:28;;;;;;;0.8;0.2;;;;;;;13.06;49.1875;918.1128;;;;
2023/03/10 13:59:56;;;;;;;0.3;0.2;;;;;;;12.71;50.92676;918.1593;;;;
2023/03/10 14:02:22;;;;;;;0.7;0.3;;;;;;;13.06;52.22949;918.1785;;;;
2023/03/10 14:04:47;;;;;;;0.2;0.2;;;;;;;12.97;50.2793;918.2129;;;;
2023/03/10 14:07:17;;;;;;;0.7;0.3;;;;;;;12.85;51.50488;918.2709;;;;
2023/03/10 14:09:40;;;;;;;1.6;0.2;;;;;;;12.66;51.66602;918.3901;;;;
2023/03/10 14:12:05;;;;;;;0.4;0.2;;;;;;;12.64;50.76855;918.3086;;;;
2023/03/10 14:14:33;;;;;;;0.6;0.2;;;;;;;13.65;48.47168;918.3084;;;;
2023/03/10 14:16:58;;;;;;;0.1;0.1;;;;;;;13.66;47.25488;918.2527;;;;
2023/03/10 14:19:23;;;;;;;0.2;0.2;;;;;;;13.51;48.42188;918.324;;;;
2023/03/10 14:21:49;;;;;;;1.1;0.2;;;;;;;13.26;48.6582;918.2797;;;;
2023/03/10 14:24:14;;;;;;;0.2;0.2;;;;;;;12.57;50.56641;918.3134;;;;
2023/03/10 14:26:41;;;;;;;0.2;0.2;;;;;;;12.46;51.24121;918.3479;;;;
2023/03/10 14:29:06;;;;;;;0.4;0.4;;;;;;;12.33;50.80078;918.3475;;;;
2023/03/10 14:31:41;;;;;;;0.3;0.1;;;;;;;12.17;51.79102;918.3719;;;;
2023/03/10 14:34:09;;;;;;;0.8;0.6;;;;;;;12.09;52.89355;918.3638;;;;
2023/03/10 14:36:34;;;;;;;1.1;0.3;;;;;;;12.18;51.62012;918.3979;;;;
2023/03/10 14:39:03;;;;;;;0.3;0.2;;;;;;;12.26;51.41309;918.3279;;;;
2023/03/10 14:41:29;;;;;;;3.9;0.9;;;;;;;12.3;50.88965;918.1361;;;;
2023/03/10 14:43:59;;;;;;;0.8;0.4;;;;;;;12.35;50.84961;918.1722;;;;
2023/03/10 14:46:27;;;;;;;0.6;0.2;;;;;;;12.53;50.79004;918.1957;;;;
2023/03/10 14:48:53;;;;;;;0;0;;;;;;;12.38;49.68262;918.3247;;;;
2023/03/10 14:51:21;;;;;;;0.3;0.2;;;;;;;11.9;51.91992;918.3632;;;;
2023/03/10 14:53:46;;;;;;;1;0.6;;;;;;;11.58;54.77637;918.4214;;;;
2023/03/10 14:56:13;;;;;;;0.1;0.1;;;;;;;11.22;56.06934;918.4822;;;;
2023/03/10 14:58:38;;;;;;;0.2;0.2;;;;;;;11.09;59.75684;918.4684;;;;
2023/03/10 15:01:05;;;;;;;0.1;0.1;;;;;;;11.01;59.8252;918.3569;;;;
2023/03/10 15:03:31;;;;;;;0;0;;;;;;;10.9;59.47754;918.3016;;;;
2023/03/10 15:05:58;;;;;;;0.1;0.1;;;;;;;10.82;60.96387;918.298;;;;
2023/03/10 15:08:23;;;;;;;1.1;1;;;;;;;11.05;62.21875;918.2816;;;;
2023/03/10 15:10:50;;;;;;;0.2;0.2;;;;;;;11.17;59.48047;918.1909;;;;
2023/03/10 15:16:45;;;;;;;0.1;0.1;;;;;;;11.5;59;918.4601;;;;
2023/03/10 15:19:10;;;;;;;0.3;0.3;;;;;;;11.16;60.56543;918.5845;;;;
2023/03/10 15:21:37;;;;;;;0.1;0.1;;;;;;;10.83;59.62793;918.8956;;;;
2023/03/10 15:24:06;;;;;;;0.8;0.8;;;;;;;10.72;61.13184;919.0219;;;;
2023/03/10 15:26:27;;;;;;;0.3;0.3;;;;;;;10.62;62.44238;918.8674;;;;
2023/03/10 15:28:54;;;;;;;1.2;0.3;;;;;;;10.21;63.51367;919.0266;;;;
2023/03/10 15:31:19;;;;;;;0.1;0.1;;;;;;;10.17;65.04883;919.0118;;;;